createdAt,value
2023-09-17T00:02:52.806Z,17.48
2023-09-17T00:06:40.641Z,17.46
2023-09-17T00:10:28.389Z,17.43
2023-09-17T00:14:16.012Z,17.41
2023-09-17T00:18:03.798Z,17.39
2023-09-17T00:21:51.558Z,17.35
2023-09-17T00:25:39.125Z,17.31
2023-09-17T00:29:26.832Z,17.26
2023-09-17T00:33:14.412Z,17.22
2023-09-17T00:37:02.099Z,17.18
2023-09-17T00:40:50.085Z,17.14
2023-09-17T00:44:38.025Z,17.10
2023-09-17T00:48:25.778Z,17.04
2023-09-17T00:52:08.405Z,16.97
2023-09-17T00:55:54.711Z,16.95
2023-09-17T00:59:42.323Z,16.95
2023-09-17T01:03:30.069Z,16.93
2023-09-17T01:07:19.292Z,16.93
2023-09-17T01:11:07.290Z,16.91
2023-09-17T01:14:54.302Z,16.89
2023-09-17T01:18:41.919Z,16.84
2023-09-17T01:22:53.676Z,16.83
2023-09-17T01:26:49.759Z,16.81
2023-09-17T01:30:37.334Z,16.79
2023-09-17T01:34:25.222Z,16.77
2023-09-17T01:38:18.473Z,16.75
2023-09-17T01:42:06.285Z,16.68
2023-09-17T01:45:55.025Z,16.59
2023-09-17T01:49:42.784Z,16.51
2023-09-17T01:53:30.454Z,16.41
2023-09-17T01:57:10.527Z,16.33
2023-09-17T02:00:48.969Z,16.30
2023-09-17T02:04:36.807Z,16.27
2023-09-17T02:08:24.406Z,16.30
2023-09-17T02:12:12.027Z,16.30
2023-09-17T02:15:59.923Z,16.29
2023-09-17T02:19:47.690Z,16.30
2023-09-17T02:23:35.290Z,16.34
2023-09-17T02:27:22.890Z,16.38
2023-09-17T02:31:10.578Z,16.44
2023-09-17T02:34:58.200Z,16.48
2023-09-17T02:38:45.857Z,16.53
2023-09-17T02:42:33.517Z,16.55
2023-09-17T02:46:21.161Z,16.56
2023-09-17T02:50:08.957Z,16.56
2023-09-17T02:53:56.807Z,16.56
2023-09-17T02:57:44.577Z,16.54
2023-09-17T03:01:32.584Z,16.52
2023-09-17T03:05:20.360Z,16.48
2023-09-17T03:09:00.340Z,16.44
2023-09-17T03:12:48.031Z,16.42
2023-09-17T03:16:38.352Z,16.42
2023-09-17T03:20:26.068Z,16.40
2023-09-17T03:24:13.814Z,16.41
2023-09-17T03:28:01.556Z,16.45
2023-09-17T03:31:29.171Z,16.50
2023-09-17T03:35:16.881Z,16.54
2023-09-17T03:39:04.665Z,16.56
2023-09-17T03:42:52.275Z,16.57
2023-09-17T03:46:39.889Z,16.57
2023-09-17T03:50:27.652Z,16.59
2023-09-17T03:54:15.326Z,16.60
2023-09-17T03:58:03.323Z,16.62
2023-09-17T04:01:51.079Z,16.60
2023-09-17T04:05:38.695Z,16.59
2023-09-17T04:09:26.380Z,16.55
2023-09-17T04:13:14.078Z,16.53
2023-09-17T04:16:56.630Z,16.51
2023-09-17T04:20:44.431Z,16.47
2023-09-17T04:24:32.007Z,16.46
2023-09-17T04:28:19.767Z,16.46
2023-09-17T04:32:10.548Z,16.45
2023-09-17T04:35:50.686Z,16.47
2023-09-17T04:39:38.459Z,16.49
2023-09-17T04:43:26.199Z,16.52
2023-09-17T04:47:03.914Z,16.58
2023-09-17T04:50:51.698Z,16.64
2023-09-17T04:54:39.371Z,16.72
2023-09-17T04:58:27.193Z,16.73
2023-09-17T05:02:14.858Z,16.75
2023-09-17T05:06:02.641Z,16.81
2023-09-17T05:09:50.384Z,16.87
2023-09-17T05:13:38.052Z,16.94
2023-09-17T05:17:25.750Z,17.02
2023-09-17T05:21:13.445Z,17.09
2023-09-17T05:25:01.053Z,17.10
2023-09-17T05:28:48.790Z,17.13
2023-09-17T05:32:24.011Z,17.17
2023-09-17T05:36:12.038Z,17.20
2023-09-17T05:39:59.830Z,17.36
2023-09-17T05:43:47.299Z,17.60
2023-09-17T05:47:35.335Z,17.71
2023-09-17T05:51:21.717Z,17.75
2023-09-17T05:55:09.326Z,17.76
2023-09-17T05:58:57.058Z,17.84
2023-09-17T06:02:44.837Z,17.98
2023-09-17T06:06:32.521Z,18.11
2023-09-17T06:10:20.208Z,18.27
2023-09-17T06:14:07.936Z,18.38
2023-09-17T06:17:55.608Z,18.47
2023-09-17T06:21:43.383Z,18.53
2023-09-17T06:25:32.936Z,18.58
2023-09-17T06:29:20.850Z,18.62
2023-09-17T06:33:08.501Z,18.64
2023-09-17T06:36:56.302Z,18.66
2023-09-17T06:39:52.413Z,18.74
2023-09-17T06:43:32.950Z,18.79
2023-09-17T06:46:49.635Z,18.92
2023-09-17T06:50:17.081Z,19.07
2023-09-17T06:53:17.944Z,19.32
2023-09-17T06:56:01.111Z,19.56
2023-09-17T06:59:21.818Z,19.76
2023-09-17T07:01:49.050Z,19.91
2023-09-17T07:04:48.740Z,20.01
2023-09-17T07:07:19.395Z,20.07
2023-09-17T07:09:49.021Z,20.12
2023-09-17T07:12:21.676Z,20.17
2023-09-17T07:14:52.133Z,20.23
2023-09-17T07:17:49.236Z,20.27
2023-09-17T07:21:23.691Z,20.33
2023-09-17T07:24:39.916Z,20.37
2023-09-17T07:28:30.533Z,20.41
2023-09-17T07:32:18.478Z,20.56
2023-09-17T07:35:36.133Z,20.66
2023-09-17T07:39:23.940Z,20.82
2023-09-17T07:43:14.317Z,21.04
2023-09-17T07:46:58.068Z,21.19
2023-09-17T07:50:19.130Z,21.35
2023-09-17T07:53:52.424Z,21.47
2023-09-17T07:57:40.287Z,21.64
2023-09-17T08:01:18.090Z,21.76
2023-09-17T08:04:39.430Z,21.84
2023-09-17T08:08:26.033Z,21.96
2023-09-17T08:11:16.334Z,21.93
2023-09-17T08:14:26.578Z,21.86
2023-09-17T08:17:38.665Z,21.77
2023-09-17T08:21:06.175Z,21.83
2023-09-17T08:24:52.947Z,21.98
2023-09-17T08:28:33.388Z,22.06
2023-09-17T08:32:21.205Z,22.12
2023-09-17T08:36:06.302Z,22.11
2023-09-17T08:39:56.158Z,22.19
2023-09-17T08:43:43.786Z,22.30
2023-09-17T08:47:06.399Z,22.36
2023-09-17T08:50:25.580Z,22.41
2023-09-17T08:53:55.123Z,22.48
2023-09-17T08:57:16.569Z,22.58
2023-09-17T09:00:25.616Z,22.58
2023-09-17T09:03:57.768Z,22.70
2023-09-17T09:07:50.513Z,22.77
2023-09-17T09:11:14.364Z,22.89
2023-09-17T09:15:04.932Z,23.21
2023-09-17T09:18:52.207Z,23.60
2023-09-17T09:22:40.001Z,23.93
2023-09-17T09:26:16.791Z,24.03
2023-09-17T09:29:48.147Z,24.17
2023-09-17T09:33:21.847Z,24.17
2023-09-17T09:36:42.416Z,23.89
2023-09-17T09:40:12.227Z,23.99
2023-09-17T09:43:20.841Z,24.19
2023-09-17T09:47:06.421Z,24.28
2023-09-17T09:50:55.900Z,24.40
2023-09-17T09:54:33.643Z,24.56
2023-09-17T09:58:14.224Z,24.84
2023-09-17T10:01:49.938Z,25.04
2023-09-17T10:05:20.799Z,25.18
2023-09-17T10:08:31.400Z,25.19
2023-09-17T10:11:59.359Z,25.22
2023-09-17T10:15:47.395Z,25.27
2023-09-17T10:19:15.580Z,25.22
2023-09-17T10:22:50.929Z,25.22
2023-09-17T10:26:22.392Z,25.22
2023-09-17T10:29:45.924Z,25.25
2023-09-17T10:33:13.761Z,25.23
2023-09-17T10:36:32.258Z,25.22
2023-09-17T10:40:01.992Z,25.21
2023-09-17T10:43:31.807Z,25.26
2023-09-17T10:46:01.699Z,25.29
2023-09-17T10:48:35.265Z,25.29
2023-09-17T10:51:16.767Z,25.36
2023-09-17T10:53:46.984Z,25.57
2023-09-17T10:56:46.295Z,25.90
2023-09-17T11:00:13.937Z,26.45
2023-09-17T11:03:47.724Z,27.13
2023-09-17T11:06:56.418Z,27.40
2023-09-17T11:10:21.220Z,28.03
2023-09-17T11:13:29.257Z,28.51
2023-09-17T11:16:50.781Z,28.71
2023-09-17T11:19:59.668Z,28.82
2023-09-17T11:23:14.156Z,28.86
2023-09-17T11:26:54.472Z,28.87
2023-09-17T11:30:10.396Z,28.92
2023-09-17T11:33:17.998Z,29.04
2023-09-17T11:36:47.795Z,28.98
2023-09-17T11:40:16.389Z,28.83
2023-09-17T11:43:25.415Z,28.67
2023-09-17T11:46:15.106Z,28.32
2023-09-17T11:49:45.615Z,27.63
2023-09-17T11:52:57.451Z,27.33
2023-09-17T11:56:20.288Z,27.19
2023-09-17T11:59:09.941Z,26.97
2023-09-17T12:02:02.576Z,27.14
2023-09-17T12:04:38.690Z,27.53
2023-09-17T12:07:55.687Z,27.75
2023-09-17T12:10:37.714Z,27.66
2023-09-17T12:13:42.881Z,27.60
2023-09-17T12:16:39.100Z,27.42
2023-09-17T12:19:26.980Z,27.31
2023-09-17T12:22:13.430Z,27.31
2023-09-17T12:25:27.418Z,27.45
2023-09-17T12:28:37.841Z,27.51
2023-09-17T12:31:28.137Z,27.74
2023-09-17T12:34:41.891Z,27.78
2023-09-17T12:37:11.979Z,27.78
2023-09-17T12:40:01.717Z,27.90
2023-09-17T12:43:19.164Z,28.19
2023-09-17T12:45:51.111Z,28.22
2023-09-17T12:48:21.276Z,28.22
2023-09-17T12:51:18.743Z,28.37
2023-09-17T12:53:51.846Z,28.41
2023-09-17T12:56:21.473Z,28.28
2023-09-17T12:59:26.224Z,28.14
2023-09-17T13:02:27.146Z,27.80
2023-09-17T13:05:51.131Z,27.86
2023-09-17T13:08:31.855Z,28.30
2023-09-17T13:11:02.304Z,28.94
2023-09-17T13:13:32.185Z,29.46
2023-09-17T13:16:22.754Z,29.64
2023-09-17T13:18:58.014Z,29.78
2023-09-17T13:21:35.041Z,29.92
2023-09-17T13:24:05.107Z,30.00
2023-09-17T13:26:34.536Z,29.99
2023-09-17T13:29:01.929Z,29.91
2023-09-17T13:31:42.708Z,29.98
2023-09-17T13:34:22.455Z,29.97
2023-09-17T13:36:58.546Z,30.11
2023-09-17T13:39:31.429Z,30.28
2023-09-17T13:42:03.801Z,30.31
2023-09-17T13:44:36.054Z,30.65
2023-09-17T13:47:24.108Z,30.71
2023-09-17T13:50:20.535Z,30.48
2023-09-17T13:52:50.569Z,30.16
2023-09-17T13:55:41.375Z,29.82
2023-09-17T13:58:08.780Z,29.53
2023-09-17T14:00:36.463Z,29.42
2023-09-17T14:03:07.962Z,29.45
2023-09-17T14:05:35.221Z,29.35
2023-09-17T14:08:02.130Z,29.23
2023-09-17T14:10:30.158Z,29.15
2023-09-17T14:13:05.165Z,29.18
2023-09-17T14:15:36.653Z,29.18
2023-09-17T14:18:04.060Z,29.32
2023-09-17T14:20:30.814Z,29.46
2023-09-17T14:23:03.470Z,29.44
2023-09-17T14:25:33.586Z,29.49
2023-09-17T14:28:00.572Z,29.50
2023-09-17T14:30:28.793Z,29.50
2023-09-17T14:32:58.399Z,29.52
2023-09-17T14:35:27.125Z,29.70
2023-09-17T14:37:57.716Z,29.69
2023-09-17T14:40:24.620Z,29.48
2023-09-17T14:42:52.046Z,29.22
2023-09-17T14:45:22.406Z,29.14
2023-09-17T14:47:50.700Z,28.94
2023-09-17T14:50:24.360Z,28.67
2023-09-17T14:52:57.824Z,28.59
2023-09-17T14:55:27.478Z,28.54
2023-09-17T14:57:54.637Z,28.63
2023-09-17T15:01:05.970Z,28.74
2023-09-17T15:04:11.314Z,28.81
2023-09-17T15:07:07.102Z,28.84
2023-09-17T15:10:09.432Z,28.70
2023-09-17T15:12:49.502Z,28.46
2023-09-17T15:15:16.675Z,28.26
2023-09-17T15:17:55.948Z,28.12
2023-09-17T15:20:26.826Z,27.97
2023-09-17T15:22:56.498Z,27.97
2023-09-17T15:25:45.531Z,27.95
2023-09-17T15:29:12.470Z,27.82
2023-09-17T15:32:11.824Z,27.50
2023-09-17T15:35:29.631Z,27.19
2023-09-17T15:38:16.458Z,26.90
2023-09-17T15:41:42.066Z,26.63
2023-09-17T15:44:34.672Z,26.43
2023-09-17T15:48:05.488Z,26.24
2023-09-17T15:50:51.998Z,25.99
2023-09-17T15:53:24.117Z,25.78
2023-09-17T15:55:54.263Z,25.63
2023-09-17T15:58:31.573Z,25.47
2023-09-17T16:01:11.419Z,25.28
2023-09-17T16:03:48.355Z,25.15
2023-09-17T16:06:23.528Z,24.95
2023-09-17T16:08:54.685Z,24.80
2023-09-17T16:11:22.007Z,24.66
2023-09-17T16:13:52.263Z,24.45
2023-09-17T16:16:21.818Z,24.30
2023-09-17T16:18:48.728Z,24.18
2023-09-17T16:21:19.249Z,24.04
2023-09-17T16:23:58.885Z,23.92
2023-09-17T16:26:58.977Z,23.79
2023-09-17T16:29:27.151Z,23.64
2023-09-17T16:31:54.198Z,23.57
2023-09-17T16:34:21.335Z,23.48
2023-09-17T16:37:11.337Z,23.39
2023-09-17T16:39:38.295Z,23.27
2023-09-17T16:42:36.717Z,23.15
2023-09-17T16:45:53.402Z,22.99
2023-09-17T16:49:13.673Z,22.82
2023-09-17T16:52:47.069Z,22.73
2023-09-17T16:55:46.950Z,22.57
2023-09-17T16:59:14.898Z,22.44
2023-09-17T17:02:07.503Z,22.29
2023-09-17T17:05:29.058Z,22.21
2023-09-17T17:09:07.840Z,22.10
2023-09-17T17:11:57.125Z,22.03
2023-09-17T17:14:55.004Z,21.96
2023-09-17T17:18:35.482Z,21.83
2023-09-17T17:21:52.051Z,21.70
2023-09-17T17:24:27.495Z,21.61
2023-09-17T17:27:18.676Z,21.54
2023-09-17T17:29:45.838Z,21.44
2023-09-17T17:32:30.455Z,21.37
2023-09-17T17:36:10.936Z,21.30
2023-09-17T17:39:06.886Z,21.24
2023-09-17T17:41:34.319Z,21.21
2023-09-17T17:44:35.281Z,21.12
2023-09-17T17:47:03.586Z,21.04
2023-09-17T17:50:03.985Z,20.97
2023-09-17T17:53:01.829Z,20.87
2023-09-17T17:56:13.450Z,20.78
2023-09-17T17:59:23.576Z,20.74
2023-09-17T18:02:26.205Z,20.68
2023-09-17T18:05:18.956Z,20.59
2023-09-17T18:08:17.818Z,20.52
2023-09-17T18:10:50.458Z,20.44
2023-09-17T18:13:46.689Z,20.40
2023-09-17T18:16:39.418Z,20.33
2023-09-17T18:19:27.141Z,20.17
2023-09-17T18:21:57.209Z,20.03
2023-09-17T18:24:42.308Z,19.90
2023-09-17T18:27:10.521Z,19.81
2023-09-17T18:29:44.613Z,19.74
2023-09-17T18:32:40.220Z,19.68
2023-09-17T18:35:29.930Z,19.56
2023-09-17T18:38:40.185Z,19.51
2023-09-17T18:41:30.071Z,19.46
2023-09-17T18:44:14.140Z,19.39
2023-09-17T18:47:31.898Z,19.35
2023-09-17T18:50:24.648Z,19.31
2023-09-17T18:53:54.445Z,19.27
2023-09-17T18:56:44.396Z,19.18
2023-09-17T18:59:24.104Z,19.11
2023-09-17T19:02:09.035Z,19.03
2023-09-17T19:05:05.610Z,18.95
2023-09-17T19:07:41.830Z,18.84
2023-09-17T19:10:30.565Z,18.78
2023-09-17T19:13:13.508Z,18.66
2023-09-17T19:16:01.749Z,18.55
2023-09-17T19:19:11.702Z,18.48
2023-09-17T19:22:23.242Z,18.40
2023-09-17T19:25:00.687Z,18.26
2023-09-17T19:27:41.376Z,18.21
2023-09-17T19:30:35.527Z,18.16
2023-09-17T19:33:08.451Z,18.10
2023-09-17T19:36:07.523Z,18.07
2023-09-17T19:38:57.885Z,18.05
2023-09-17T19:41:34.156Z,18.02
2023-09-17T19:44:26.211Z,17.98
2023-09-17T19:47:10.218Z,17.92
2023-09-17T19:49:47.793Z,17.89
2023-09-17T19:52:18.467Z,17.86
2023-09-17T19:55:06.254Z,17.83
2023-09-17T19:57:40.339Z,17.84
2023-09-17T20:00:57.961Z,17.82
2023-09-17T20:04:13.042Z,17.82
2023-09-17T20:06:54.660Z,17.85
2023-09-17T20:09:52.939Z,17.86
2023-09-17T20:12:28.442Z,17.79
2023-09-17T20:15:07.284Z,17.75
2023-09-17T20:17:57.976Z,17.72
2023-09-17T20:20:34.164Z,17.68
2023-09-17T20:23:11.988Z,17.60
2023-09-17T20:26:17.194Z,17.53
2023-09-17T20:29:12.732Z,17.41
2023-09-17T20:32:22.197Z,17.31
2023-09-17T20:35:27.543Z,17.23
2023-09-17T20:38:40.302Z,17.15
2023-09-17T20:42:27.914Z,17.09
2023-09-17T20:46:04.893Z,17.02
2023-09-17T20:49:52.750Z,17.00
2023-09-17T20:53:25.794Z,16.98
2023-09-17T20:56:38.394Z,16.96
2023-09-17T20:59:39.318Z,16.89
2023-09-17T21:02:27.784Z,16.86
2023-09-17T21:05:02.860Z,16.86
2023-09-17T21:08:13.314Z,16.84
2023-09-17T21:10:51.731Z,16.82
2023-09-17T21:13:34.727Z,16.82
2023-09-17T21:16:28.744Z,16.79
2023-09-17T21:19:14.650Z,16.75
2023-09-17T21:21:45.002Z,16.67
2023-09-17T21:25:06.368Z,16.63
2023-09-17T21:27:44.788Z,16.58
2023-09-17T21:30:32.847Z,16.52
2023-09-17T21:33:49.260Z,16.47
2023-09-17T21:36:36.518Z,16.44
2023-09-17T21:39:38.913Z,16.39
2023-09-17T21:42:25.272Z,16.36
2023-09-17T21:45:16.576Z,16.31
2023-09-17T21:48:15.565Z,16.26
2023-09-17T21:50:54.741Z,16.20
2023-09-17T21:53:50.465Z,16.17
2023-09-17T21:56:41.150Z,16.17
2023-09-17T21:59:17.145Z,16.17
2023-09-17T22:01:49.957Z,16.13
2023-09-17T22:05:08.075Z,16.07
2023-09-17T22:07:54.114Z,16.05
2023-09-17T22:10:21.669Z,16.03
2023-09-17T22:13:07.488Z,16.03
2023-09-17T22:15:36.889Z,16.02
2023-09-17T22:18:37.306Z,15.99
2023-09-17T22:21:44.205Z,16.01
2023-09-17T22:24:39.520Z,16.05
2023-09-17T22:27:21.515Z,16.08
2023-09-17T22:29:53.808Z,16.07
2023-09-17T22:32:37.903Z,16.03
2023-09-17T22:35:10.728Z,15.96
2023-09-17T22:38:13.425Z,15.91
2023-09-17T22:41:14.331Z,15.87
2023-09-17T22:43:48.499Z,15.84
2023-09-17T22:46:30.943Z,15.78
2023-09-17T22:49:38.143Z,15.72
2023-09-17T22:52:05.885Z,15.67
2023-09-17T22:55:02.813Z,15.61
2023-09-17T22:58:33.323Z,15.52
2023-09-17T23:01:39.203Z,15.43
2023-09-17T23:04:32.848Z,15.40
2023-09-17T23:07:23.112Z,15.36
2023-09-17T23:10:03.960Z,15.35
2023-09-17T23:13:11.400Z,15.35
2023-09-17T23:16:24.860Z,15.31
2023-09-17T23:19:13.650Z,15.28
2023-09-17T23:22:05.857Z,15.30
2023-09-17T23:25:04.967Z,15.33
2023-09-17T23:28:21.118Z,15.36
2023-09-17T23:31:04.462Z,15.36
2023-09-17T23:34:01.543Z,15.34
2023-09-17T23:36:59.188Z,15.33
2023-09-17T23:40:20.687Z,15.31
2023-09-17T23:43:03.089Z,15.30
2023-09-17T23:45:42.165Z,15.31
2023-09-17T23:49:00.487Z,15.27
2023-09-17T23:51:55.718Z,15.20
2023-09-17T23:54:28.067Z,15.15
2023-09-17T23:57:17.505Z,15.07
2023-09-17T23:59:49.993Z,15.04
